sensor_id;sensor_type;location;lat;lon;timestamp;P1;durP1;ratioP1;P2;durP2;ratioP2
10031;SDS011;5056;44.272;19.892;2022-12-19T00:01:18;233.23;;;107.67;;
10031;SDS011;5056;44.272;19.892;2022-12-19T00:03:47;217.53;;;108.00;;
10031;SDS011;5056;44.272;19.892;2022-12-19T00:06:15;219.60;;;107.63;;
10031;SDS011;5056;44.272;19.892;2022-12-19T00:08:44;191.50;;;99.57;;
10031;SDS011;5056;44.272;19.892;2022-12-19T00:11:13;195.17;;;99.47;;
10031;SDS011;5056;44.272;19.892;2022-12-19T00:13:42;199.53;;;100.27;;
10031;SDS011;5056;44.272;19.892;2022-12-19T00:16:16;195.43;;;97.80;;
10031;SDS011;5056;44.272;19.892;2022-12-19T00:18:44;211.37;;;104.33;;
10031;SDS011;5056;44.272;19.892;2022-12-19T00:21:12;198.40;;;99.33;;
10031;SDS011;5056;44.272;19.892;2022-12-19T00:23:42;162.03;;;84.87;;
10031;SDS011;5056;44.272;19.892;2022-12-19T00:26:10;165.23;;;88.63;;
10031;SDS011;5056;44.272;19.892;2022-12-19T00:28:39;160.90;;;82.07;;
10031;SDS011;5056;44.272;19.892;2022-12-19T00:31:09;194.47;;;101.23;;
10031;SDS011;5056;44.272;19.892;2022-12-19T00:36:11;179.93;;;95.23;;
10031;SDS011;5056;44.272;19.892;2022-12-19T00:38:39;195.47;;;102.83;;
10031;SDS011;5056;44.272;19.892;2022-12-19T00:41:07;189.70;;;100.10;;
10031;SDS011;5056;44.272;19.892;2022-12-19T00:43:34;199.53;;;101.53;;
10031;SDS011;5056;44.272;19.892;2022-12-19T00:46:03;189.07;;;101.20;;
10031;SDS011;5056;44.272;19.892;2022-12-19T00:48:31;197.20;;;103.70;;
10031;SDS011;5056;44.272;19.892;2022-12-19T00:50:59;197.47;;;102.87;;
10031;SDS011;5056;44.272;19.892;2022-12-19T00:53:26;184.53;;;99.53;;
10031;SDS011;5056;44.272;19.892;2022-12-19T00:58:47;192.90;;;104.47;;
10031;SDS011;5056;44.272;19.892;2022-12-19T01:01:16;186.93;;;99.63;;
10031;SDS011;5056;44.272;19.892;2022-12-19T01:03:45;148.93;;;85.87;;
10031;SDS011;5056;44.272;19.892;2022-12-19T01:06:12;169.37;;;92.10;;
10031;SDS011;5056;44.272;19.892;2022-12-19T01:08:43;191.03;;;99.03;;
10031;SDS011;5056;44.272;19.892;2022-12-19T01:11:10;183.17;;;92.73;;
10031;SDS011;5056;44.272;19.892;2022-12-19T01:13:38;181.57;;;95.90;;
10031;SDS011;5056;44.272;19.892;2022-12-19T01:16:06;192.27;;;98.93;;
10031;SDS011;5056;44.272;19.892;2022-12-19T01:18:36;181.33;;;95.57;;
10031;SDS011;5056;44.272;19.892;2022-12-19T01:21:04;174.87;;;93.60;;
10031;SDS011;5056;44.272;19.892;2022-12-19T01:23:32;189.90;;;95.57;;
10031;SDS011;5056;44.272;19.892;2022-12-19T01:25:59;168.47;;;92.83;;
10031;SDS011;5056;44.272;19.892;2022-12-19T01:28:26;167.00;;;87.47;;
10031;SDS011;5056;44.272;19.892;2022-12-19T01:30:53;143.23;;;76.70;;
10031;SDS011;5056;44.272;19.892;2022-12-19T01:33:21;131.93;;;73.03;;
10031;SDS011;5056;44.272;19.892;2022-12-19T01:35:50;140.50;;;71.20;;
10031;SDS011;5056;44.272;19.892;2022-12-19T01:38:18;140.23;;;73.00;;
10031;SDS011;5056;44.272;19.892;2022-12-19T01:40:51;128.53;;;68.30;;
10031;SDS011;5056;44.272;19.892;2022-12-19T01:43:27;124.07;;;68.80;;
10031;SDS011;5056;44.272;19.892;2022-12-19T01:45:56;133.63;;;70.77;;
10031;SDS011;5056;44.272;19.892;2022-12-19T01:48:25;136.00;;;70.60;;
10031;SDS011;5056;44.272;19.892;2022-12-19T01:50:57;145.63;;;76.20;;
10031;SDS011;5056;44.272;19.892;2022-12-19T01:53:27;145.93;;;76.00;;
10031;SDS011;5056;44.272;19.892;2022-12-19T01:55:56;154.67;;;78.17;;
10031;SDS011;5056;44.272;19.892;2022-12-19T01:58:24;145.47;;;77.43;;
10031;SDS011;5056;44.272;19.892;2022-12-19T02:00:51;132.60;;;70.53;;
10031;SDS011;5056;44.272;19.892;2022-12-19T02:03:19;121.13;;;66.53;;
10031;SDS011;5056;44.272;19.892;2022-12-19T02:05:48;136.60;;;71.40;;
10031;SDS011;5056;44.272;19.892;2022-12-19T02:08:25;127.07;;;68.77;;
10031;SDS011;5056;44.272;19.892;2022-12-19T02:10:52;130.97;;;69.33;;
10031;SDS011;5056;44.272;19.892;2022-12-19T02:13:19;121.13;;;67.37;;
10031;SDS011;5056;44.272;19.892;2022-12-19T02:15:47;113.43;;;65.00;;
10031;SDS011;5056;44.272;19.892;2022-12-19T02:18:21;125.03;;;69.53;;
10031;SDS011;5056;44.272;19.892;2022-12-19T02:27:00;110.27;;;63.57;;
10031;SDS011;5056;44.272;19.892;2022-12-19T02:29:39;121.67;;;67.83;;
10031;SDS011;5056;44.272;19.892;2022-12-19T02:32:18;117.10;;;64.53;;
10031;SDS011;5056;44.272;19.892;2022-12-19T02:34:49;121.00;;;62.87;;
10031;SDS011;5056;44.272;19.892;2022-12-19T02:37:22;103.27;;;58.83;;
10031;SDS011;5056;44.272;19.892;2022-12-19T02:39:54;107.53;;;60.20;;
10031;SDS011;5056;44.272;19.892;2022-12-19T02:45:16;109.60;;;58.70;;
10031;SDS011;5056;44.272;19.892;2022-12-19T02:47:47;106.77;;;56.33;;
10031;SDS011;5056;44.272;19.892;2022-12-19T02:50:14;103.30;;;56.00;;
10031;SDS011;5056;44.272;19.892;2022-12-19T02:52:45;98.13;;;53.80;;
10031;SDS011;5056;44.272;19.892;2022-12-19T02:55:14;102.63;;;55.53;;
10031;SDS011;5056;44.272;19.892;2022-12-19T03:00:48;101.93;;;56.47;;
10031;SDS011;5056;44.272;19.892;2022-12-19T03:03:22;90.27;;;54.20;;
10031;SDS011;5056;44.272;19.892;2022-12-19T03:05:55;95.13;;;53.00;;
10031;SDS011;5056;44.272;19.892;2022-12-19T03:08:31;98.53;;;54.10;;
10031;SDS011;5056;44.272;19.892;2022-12-19T03:11:05;98.60;;;54.30;;
10031;SDS011;5056;44.272;19.892;2022-12-19T03:13:42;98.37;;;55.57;;
10031;SDS011;5056;44.272;19.892;2022-12-19T03:16:12;89.33;;;51.97;;
10031;SDS011;5056;44.272;19.892;2022-12-19T03:18:42;98.20;;;55.07;;
10031;SDS011;5056;44.272;19.892;2022-12-19T03:21:10;103.47;;;54.97;;
10031;SDS011;5056;44.272;19.892;2022-12-19T03:23:40;105.30;;;55.00;;
10031;SDS011;5056;44.272;19.892;2022-12-19T03:26:08;91.93;;;47.63;;
10031;SDS011;5056;44.272;19.892;2022-12-19T03:28:38;91.60;;;49.70;;
10031;SDS011;5056;44.272;19.892;2022-12-19T03:31:08;88.90;;;49.83;;
10031;SDS011;5056;44.272;19.892;2022-12-19T03:36:06;91.33;;;52.77;;
10031;SDS011;5056;44.272;19.892;2022-12-19T03:38:36;91.37;;;48.93;;
10031;SDS011;5056;44.272;19.892;2022-12-19T03:41:03;85.80;;;48.53;;
10031;SDS011;5056;44.272;19.892;2022-12-19T03:43:32;96.80;;;50.27;;
10031;SDS011;5056;44.272;19.892;2022-12-19T03:46:00;94.27;;;50.87;;
10031;SDS011;5056;44.272;19.892;2022-12-19T03:48:31;99.80;;;54.17;;
10031;SDS011;5056;44.272;19.892;2022-12-19T03:51:04;90.73;;;50.37;;
10031;SDS011;5056;44.272;19.892;2022-12-19T03:53:41;94.10;;;49.63;;
10031;SDS011;5056;44.272;19.892;2022-12-19T03:56:15;91.87;;;50.47;;
10031;SDS011;5056;44.272;19.892;2022-12-19T03:58:50;85.60;;;48.10;;
10031;SDS011;5056;44.272;19.892;2022-12-19T04:01:19;91.33;;;49.97;;
10031;SDS011;5056;44.272;19.892;2022-12-19T04:03:46;93.57;;;50.90;;
10031;SDS011;5056;44.272;19.892;2022-12-19T04:06:17;92.77;;;52.40;;
10031;SDS011;5056;44.272;19.892;2022-12-19T04:08:54;90.20;;;49.57;;
10031;SDS011;5056;44.272;19.892;2022-12-19T04:11:22;94.53;;;50.63;;
10031;SDS011;5056;44.272;19.892;2022-12-19T04:13:50;92.90;;;50.30;;
10031;SDS011;5056;44.272;19.892;2022-12-19T04:16:29;85.97;;;49.20;;
10031;SDS011;5056;44.272;19.892;2022-12-19T04:19:02;92.20;;;49.00;;
10031;SDS011;5056;44.272;19.892;2022-12-19T04:21:33;101.20;;;51.47;;
10031;SDS011;5056;44.272;19.892;2022-12-19T04:24:06;86.13;;;48.53;;
10031;SDS011;5056;44.272;19.892;2022-12-19T04:26:36;86.57;;;47.23;;
10031;SDS011;5056;44.272;19.892;2022-12-19T04:29:05;94.37;;;50.97;;
10031;SDS011;5056;44.272;19.892;2022-12-19T04:31:33;80.20;;;47.07;;
10031;SDS011;5056;44.272;19.892;2022-12-19T04:34:01;86.47;;;48.37;;
10031;SDS011;5056;44.272;19.892;2022-12-19T04:36:27;90.73;;;49.83;;
10031;SDS011;5056;44.272;19.892;2022-12-19T04:38:56;110.57;;;57.17;;
10031;SDS011;5056;44.272;19.892;2022-12-19T04:41:23;99.83;;;54.70;;
10031;SDS011;5056;44.272;19.892;2022-12-19T04:43:50;101.60;;;52.77;;
10031;SDS011;5056;44.272;19.892;2022-12-19T04:46:17;97.60;;;53.13;;
10031;SDS011;5056;44.272;19.892;2022-12-19T04:51:35;86.07;;;46.53;;
10031;SDS011;5056;44.272;19.892;2022-12-19T04:54:05;90.20;;;48.83;;
10031;SDS011;5056;44.272;19.892;2022-12-19T04:59:08;86.37;;;48.93;;
10031;SDS011;5056;44.272;19.892;2022-12-19T05:01:35;92.67;;;48.57;;
10031;SDS011;5056;44.272;19.892;2022-12-19T05:04:02;96.73;;;51.53;;
10031;SDS011;5056;44.272;19.892;2022-12-19T05:06:29;93.60;;;51.13;;
10031;SDS011;5056;44.272;19.892;2022-12-19T05:08:56;93.57;;;52.57;;
10031;SDS011;5056;44.272;19.892;2022-12-19T05:11:25;93.67;;;52.50;;
10031;SDS011;5056;44.272;19.892;2022-12-19T05:13:51;88.37;;;48.60;;
10031;SDS011;5056;44.272;19.892;2022-12-19T05:16:19;107.50;;;55.80;;
10031;SDS011;5056;44.272;19.892;2022-12-19T05:21:36;115.03;;;60.93;;
10031;SDS011;5056;44.272;19.892;2022-12-19T05:27:24;101.57;;;55.03;;
10031;SDS011;5056;44.272;19.892;2022-12-19T05:29:51;93.07;;;49.60;;
10031;SDS011;5056;44.272;19.892;2022-12-19T05:32:18;88.97;;;48.67;;
10031;SDS011;5056;44.272;19.892;2022-12-19T05:34:45;103.43;;;54.43;;
10031;SDS011;5056;44.272;19.892;2022-12-19T05:37:12;100.77;;;54.30;;
10031;SDS011;5056;44.272;19.892;2022-12-19T05:39:39;111.37;;;59.40;;
10031;SDS011;5056;44.272;19.892;2022-12-19T05:42:06;107.57;;;60.07;;
10031;SDS011;5056;44.272;19.892;2022-12-19T05:44:35;113.07;;;59.70;;
10031;SDS011;5056;44.272;19.892;2022-12-19T05:47:02;109.00;;;58.63;;
10031;SDS011;5056;44.272;19.892;2022-12-19T05:49:29;116.10;;;60.37;;
10031;SDS011;5056;44.272;19.892;2022-12-19T05:51:56;134.73;;;68.00;;
10031;SDS011;5056;44.272;19.892;2022-12-19T05:54:24;160.80;;;78.23;;
10031;SDS011;5056;44.272;19.892;2022-12-19T05:56:52;152.23;;;74.33;;
10031;SDS011;5056;44.272;19.892;2022-12-19T05:59:19;137.20;;;73.57;;
10031;SDS011;5056;44.272;19.892;2022-12-19T06:01:48;147.53;;;76.27;;
10031;SDS011;5056;44.272;19.892;2022-12-19T06:04:16;159.07;;;83.57;;
10031;SDS011;5056;44.272;19.892;2022-12-19T06:06:43;162.97;;;85.30;;
10031;SDS011;5056;44.272;19.892;2022-12-19T06:09:11;158.90;;;84.80;;
10031;SDS011;5056;44.272;19.892;2022-12-19T06:11:38;164.67;;;88.73;;
10031;SDS011;5056;44.272;19.892;2022-12-19T06:14:05;167.73;;;91.77;;
10031;SDS011;5056;44.272;19.892;2022-12-19T06:16:32;166.27;;;89.83;;
10031;SDS011;5056;44.272;19.892;2022-12-19T06:19:01;160.63;;;82.17;;
10031;SDS011;5056;44.272;19.892;2022-12-19T06:21:28;132.97;;;68.50;;
10031;SDS011;5056;44.272;19.892;2022-12-19T06:23:55;125.30;;;72.10;;
10031;SDS011;5056;44.272;19.892;2022-12-19T06:26:22;120.87;;;62.07;;
10031;SDS011;5056;44.272;19.892;2022-12-19T06:28:50;110.50;;;59.30;;
10031;SDS011;5056;44.272;19.892;2022-12-19T06:31:18;107.27;;;57.17;;
10031;SDS011;5056;44.272;19.892;2022-12-19T06:33:45;97.73;;;53.03;;
10031;SDS011;5056;44.272;19.892;2022-12-19T06:36:15;107.73;;;54.23;;
10031;SDS011;5056;44.272;19.892;2022-12-19T06:38:44;96.37;;;51.70;;
10031;SDS011;5056;44.272;19.892;2022-12-19T06:41:11;106.67;;;59.20;;
10031;SDS011;5056;44.272;19.892;2022-12-19T06:43:56;90.23;;;49.53;;
10031;SDS011;5056;44.272;19.892;2022-12-19T06:46:23;91.03;;;49.50;;
10031;SDS011;5056;44.272;19.892;2022-12-19T06:48:51;93.00;;;50.93;;
10031;SDS011;5056;44.272;19.892;2022-12-19T06:51:22;89.70;;;47.67;;
10031;SDS011;5056;44.272;19.892;2022-12-19T06:53:49;86.80;;;45.50;;
10031;SDS011;5056;44.272;19.892;2022-12-19T06:56:16;85.17;;;45.77;;
10031;SDS011;5056;44.272;19.892;2022-12-19T06:58:44;83.87;;;45.10;;
10031;SDS011;5056;44.272;19.892;2022-12-19T07:01:15;86.40;;;48.10;;
10031;SDS011;5056;44.272;19.892;2022-12-19T07:03:42;85.90;;;48.13;;
10031;SDS011;5056;44.272;19.892;2022-12-19T07:06:10;104.70;;;54.30;;
10031;SDS011;5056;44.272;19.892;2022-12-19T07:08:40;121.67;;;62.23;;
10031;SDS011;5056;44.272;19.892;2022-12-19T07:11:07;110.70;;;60.00;;
10031;SDS011;5056;44.272;19.892;2022-12-19T07:13:35;122.43;;;63.03;;
10031;SDS011;5056;44.272;19.892;2022-12-19T07:16:03;130.70;;;74.00;;
10031;SDS011;5056;44.272;19.892;2022-12-19T07:18:33;173.77;;;91.97;;
10031;SDS011;5056;44.272;19.892;2022-12-19T07:21:02;142.50;;;74.10;;
10031;SDS011;5056;44.272;19.892;2022-12-19T07:23:30;125.60;;;68.20;;
10031;SDS011;5056;44.272;19.892;2022-12-19T07:26:00;129.50;;;70.20;;
10031;SDS011;5056;44.272;19.892;2022-12-19T07:28:26;140.93;;;74.87;;
10031;SDS011;5056;44.272;19.892;2022-12-19T07:30:54;136.57;;;67.03;;
10031;SDS011;5056;44.272;19.892;2022-12-19T07:33:21;131.53;;;66.50;;
10031;SDS011;5056;44.272;19.892;2022-12-19T07:35:48;129.80;;;68.70;;
10031;SDS011;5056;44.272;19.892;2022-12-19T07:38:17;136.57;;;69.20;;
10031;SDS011;5056;44.272;19.892;2022-12-19T07:40:44;131.93;;;67.33;;
10031;SDS011;5056;44.272;19.892;2022-12-19T07:43:13;143.67;;;78.83;;
10031;SDS011;5056;44.272;19.892;2022-12-19T07:45:40;144.03;;;76.53;;
10031;SDS011;5056;44.272;19.892;2022-12-19T07:48:08;156.53;;;82.73;;
10031;SDS011;5056;44.272;19.892;2022-12-19T07:50:35;141.70;;;76.70;;
10031;SDS011;5056;44.272;19.892;2022-12-19T07:53:02;151.97;;;85.27;;
10031;SDS011;5056;44.272;19.892;2022-12-19T07:55:29;150.60;;;80.43;;
10031;SDS011;5056;44.272;19.892;2022-12-19T07:57:58;141.97;;;74.17;;
10031;SDS011;5056;44.272;19.892;2022-12-19T08:00:26;133.73;;;71.03;;
10031;SDS011;5056;44.272;19.892;2022-12-19T08:02:54;131.90;;;73.30;;
10031;SDS011;5056;44.272;19.892;2022-12-19T08:05:24;140.40;;;74.83;;
10031;SDS011;5056;44.272;19.892;2022-12-19T08:07:52;130.07;;;69.53;;
10031;SDS011;5056;44.272;19.892;2022-12-19T08:10:21;134.63;;;69.63;;
10031;SDS011;5056;44.272;19.892;2022-12-19T08:12:50;137.43;;;76.63;;
10031;SDS011;5056;44.272;19.892;2022-12-19T08:15:17;134.77;;;73.03;;
10031;SDS011;5056;44.272;19.892;2022-12-19T08:17:46;141.67;;;79.50;;
10031;SDS011;5056;44.272;19.892;2022-12-19T08:20:25;153.23;;;78.27;;
10031;SDS011;5056;44.272;19.892;2022-12-19T08:22:52;151.27;;;78.70;;
10031;SDS011;5056;44.272;19.892;2022-12-19T08:25:19;147.07;;;82.07;;
10031;SDS011;5056;44.272;19.892;2022-12-19T08:27:46;152.87;;;85.67;;
10031;SDS011;5056;44.272;19.892;2022-12-19T08:30:14;152.43;;;80.33;;
10031;SDS011;5056;44.272;19.892;2022-12-19T08:32:43;166.00;;;89.47;;
10031;SDS011;5056;44.272;19.892;2022-12-19T08:35:11;159.47;;;87.77;;
10031;SDS011;5056;44.272;19.892;2022-12-19T08:37:38;161.77;;;88.07;;
10031;SDS011;5056;44.272;19.892;2022-12-19T08:40:07;148.90;;;83.63;;
10031;SDS011;5056;44.272;19.892;2022-12-19T08:42:36;170.67;;;97.20;;
10031;SDS011;5056;44.272;19.892;2022-12-19T08:45:06;181.63;;;94.80;;
10031;SDS011;5056;44.272;19.892;2022-12-19T08:47:34;170.77;;;96.97;;
10031;SDS011;5056;44.272;19.892;2022-12-19T08:50:02;166.00;;;94.43;;
10031;SDS011;5056;44.272;19.892;2022-12-19T08:52:31;145.10;;;81.97;;
10031;SDS011;5056;44.272;19.892;2022-12-19T08:54:58;153.87;;;88.40;;
10031;SDS011;5056;44.272;19.892;2022-12-19T08:57:26;165.70;;;90.77;;
10031;SDS011;5056;44.272;19.892;2022-12-19T08:59:53;181.53;;;106.90;;
10031;SDS011;5056;44.272;19.892;2022-12-19T09:02:21;178.00;;;99.17;;
10031;SDS011;5056;44.272;19.892;2022-12-19T09:04:49;165.53;;;94.53;;
10031;SDS011;5056;44.272;19.892;2022-12-19T09:07:17;172.53;;;97.70;;
10031;SDS011;5056;44.272;19.892;2022-12-19T09:09:47;156.63;;;90.83;;
10031;SDS011;5056;44.272;19.892;2022-12-19T09:12:14;127.30;;;78.47;;
10031;SDS011;5056;44.272;19.892;2022-12-19T09:14:43;126.13;;;69.83;;
10031;SDS011;5056;44.272;19.892;2022-12-19T09:17:10;129.07;;;73.50;;
10031;SDS011;5056;44.272;19.892;2022-12-19T09:19:39;126.30;;;72.67;;
10031;SDS011;5056;44.272;19.892;2022-12-19T09:22:07;132.60;;;76.00;;
10031;SDS011;5056;44.272;19.892;2022-12-19T09:24:35;143.63;;;80.80;;
10031;SDS011;5056;44.272;19.892;2022-12-19T09:27:04;144.03;;;81.63;;
10031;SDS011;5056;44.272;19.892;2022-12-19T09:29:31;163.93;;;89.80;;
10031;SDS011;5056;44.272;19.892;2022-12-19T09:31:59;162.40;;;91.33;;
10031;SDS011;5056;44.272;19.892;2022-12-19T09:34:26;159.80;;;86.77;;
10031;SDS011;5056;44.272;19.892;2022-12-19T09:36:56;184.77;;;96.40;;
10031;SDS011;5056;44.272;19.892;2022-12-19T09:39:26;154.50;;;87.67;;
10031;SDS011;5056;44.272;19.892;2022-12-19T09:42:00;145.27;;;83.77;;
10031;SDS011;5056;44.272;19.892;2022-12-19T09:44:49;150.10;;;87.77;;
10031;SDS011;5056;44.272;19.892;2022-12-19T09:47:23;149.43;;;82.07;;
10031;SDS011;5056;44.272;19.892;2022-12-19T09:49:53;163.40;;;92.00;;
10031;SDS011;5056;44.272;19.892;2022-12-19T09:52:22;150.20;;;84.50;;
10031;SDS011;5056;44.272;19.892;2022-12-19T09:54:53;186.43;;;96.07;;
10031;SDS011;5056;44.272;19.892;2022-12-19T09:57:30;147.27;;;85.93;;
10031;SDS011;5056;44.272;19.892;2022-12-19T10:00:04;154.80;;;92.97;;
10031;SDS011;5056;44.272;19.892;2022-12-19T10:02:36;167.70;;;96.17;;
10031;SDS011;5056;44.272;19.892;2022-12-19T10:05:11;127.70;;;71.47;;
10031;SDS011;5056;44.272;19.892;2022-12-19T10:07:44;121.60;;;71.03;;
10031;SDS011;5056;44.272;19.892;2022-12-19T10:10:22;116.13;;;66.27;;
10031;SDS011;5056;44.272;19.892;2022-12-19T10:13:01;119.17;;;60.97;;
10031;SDS011;5056;44.272;19.892;2022-12-19T10:15:36;102.77;;;57.87;;
10031;SDS011;5056;44.272;19.892;2022-12-19T10:18:13;111.67;;;68.17;;
10031;SDS011;5056;44.272;19.892;2022-12-19T10:21:01;108.17;;;63.63;;
10031;SDS011;5056;44.272;19.892;2022-12-19T10:23:46;119.63;;;68.83;;
10031;SDS011;5056;44.272;19.892;2022-12-19T10:29:14;141.77;;;73.77;;
10031;SDS011;5056;44.272;19.892;2022-12-19T10:31:57;99.67;;;57.73;;
10031;SDS011;5056;44.272;19.892;2022-12-19T10:34:39;90.30;;;56.33;;
10031;SDS011;5056;44.272;19.892;2022-12-19T10:37:11;104.53;;;58.97;;
10031;SDS011;5056;44.272;19.892;2022-12-19T10:39:46;80.30;;;54.47;;
10031;SDS011;5056;44.272;19.892;2022-12-19T10:42:18;91.20;;;54.17;;
10031;SDS011;5056;44.272;19.892;2022-12-19T10:44:55;101.80;;;59.33;;
10031;SDS011;5056;44.272;19.892;2022-12-19T10:47:24;101.23;;;60.20;;
10031;SDS011;5056;44.272;19.892;2022-12-19T10:49:54;102.43;;;58.83;;
10031;SDS011;5056;44.272;19.892;2022-12-19T10:58:10;93.40;;;57.97;;
10031;SDS011;5056;44.272;19.892;2022-12-19T11:01:08;129.10;;;74.30;;
10031;SDS011;5056;44.272;19.892;2022-12-19T11:03:37;94.40;;;61.53;;
10031;SDS011;5056;44.272;19.892;2022-12-19T11:09:19;188.03;;;101.80;;
10031;SDS011;5056;44.272;19.892;2022-12-19T11:11:48;134.73;;;69.73;;
10031;SDS011;5056;44.272;19.892;2022-12-19T11:14:24;107.03;;;61.27;;
10031;SDS011;5056;44.272;19.892;2022-12-19T11:16:53;94.70;;;56.23;;
10031;SDS011;5056;44.272;19.892;2022-12-19T11:19:25;93.10;;;56.70;;
10031;SDS011;5056;44.272;19.892;2022-12-19T11:21:55;89.83;;;56.93;;
10031;SDS011;5056;44.272;19.892;2022-12-19T11:24:26;124.60;;;68.43;;
10031;SDS011;5056;44.272;19.892;2022-12-19T11:26:56;128.90;;;68.13;;
10031;SDS011;5056;44.272;19.892;2022-12-19T11:29:24;113.93;;;66.07;;
10031;SDS011;5056;44.272;19.892;2022-12-19T11:32:19;102.80;;;60.43;;
10031;SDS011;5056;44.272;19.892;2022-12-19T11:34:48;95.33;;;55.00;;
10031;SDS011;5056;44.272;19.892;2022-12-19T11:37:19;90.97;;;58.63;;
10031;SDS011;5056;44.272;19.892;2022-12-19T11:42:31;308.67;;;124.87;;
10031;SDS011;5056;44.272;19.892;2022-12-19T11:45:02;82.40;;;48.13;;
10031;SDS011;5056;44.272;19.892;2022-12-19T11:47:36;77.30;;;45.33;;
10031;SDS011;5056;44.272;19.892;2022-12-19T11:50:09;57.43;;;37.77;;
10031;SDS011;5056;44.272;19.892;2022-12-19T11:52:39;51.03;;;35.97;;
10031;SDS011;5056;44.272;19.892;2022-12-19T11:55:13;59.77;;;38.40;;
10031;SDS011;5056;44.272;19.892;2022-12-19T11:57:43;64.40;;;41.70;;
10031;SDS011;5056;44.272;19.892;2022-12-19T12:00:11;75.40;;;49.30;;
10031;SDS011;5056;44.272;19.892;2022-12-19T12:06:08;63.73;;;42.60;;
10031;SDS011;5056;44.272;19.892;2022-12-19T12:08:44;56.77;;;37.90;;
10031;SDS011;5056;44.272;19.892;2022-12-19T12:11:22;52.03;;;34.57;;
10031;SDS011;5056;44.272;19.892;2022-12-19T12:13:59;50.67;;;33.63;;
10031;SDS011;5056;44.272;19.892;2022-12-19T12:16:36;49.20;;;32.70;;
10031;SDS011;5056;44.272;19.892;2022-12-19T12:19:11;53.67;;;33.50;;
10031;SDS011;5056;44.272;19.892;2022-12-19T12:21:47;48.30;;;33.13;;
10031;SDS011;5056;44.272;19.892;2022-12-19T12:24:19;48.80;;;30.97;;
10031;SDS011;5056;44.272;19.892;2022-12-19T12:26:59;36.33;;;25.60;;
10031;SDS011;5056;44.272;19.892;2022-12-19T12:29:32;46.57;;;32.27;;
10031;SDS011;5056;44.272;19.892;2022-12-19T12:34:54;42.53;;;29.73;;
10031;SDS011;5056;44.272;19.892;2022-12-19T12:37:29;32.93;;;23.67;;
10031;SDS011;5056;44.272;19.892;2022-12-19T12:40:09;33.77;;;23.53;;
10031;SDS011;5056;44.272;19.892;2022-12-19T12:42:51;33.20;;;22.67;;
10031;SDS011;5056;44.272;19.892;2022-12-19T12:45:24;32.90;;;23.00;;
10031;SDS011;5056;44.272;19.892;2022-12-19T12:47:56;36.27;;;24.60;;
10031;SDS011;5056;44.272;19.892;2022-12-19T12:50:26;33.70;;;23.03;;
10031;SDS011;5056;44.272;19.892;2022-12-19T12:52:55;32.03;;;23.50;;
10031;SDS011;5056;44.272;19.892;2022-12-19T12:55:24;24.13;;;17.93;;
10031;SDS011;5056;44.272;19.892;2022-12-19T12:57:53;24.20;;;16.70;;
10031;SDS011;5056;44.272;19.892;2022-12-19T13:00:21;25.13;;;18.10;;
10031;SDS011;5056;44.272;19.892;2022-12-19T13:02:51;24.53;;;18.20;;
10031;SDS011;5056;44.272;19.892;2022-12-19T13:05:28;29.47;;;20.37;;
10031;SDS011;5056;44.272;19.892;2022-12-19T13:08:24;30.73;;;19.37;;
10031;SDS011;5056;44.272;19.892;2022-12-19T13:10:58;26.17;;;18.47;;
10031;SDS011;5056;44.272;19.892;2022-12-19T13:19:18;28.70;;;20.30;;
10031;SDS011;5056;44.272;19.892;2022-12-19T13:24:43;30.83;;;21.20;;
10031;SDS011;5056;44.272;19.892;2022-12-19T13:30:02;29.53;;;21.67;;
10031;SDS011;5056;44.272;19.892;2022-12-19T13:35:55;31.50;;;22.57;;
10031;SDS011;5056;44.272;19.892;2022-12-19T13:38:24;31.37;;;21.77;;
10031;SDS011;5056;44.272;19.892;2022-12-19T13:40:55;29.83;;;22.13;;
10031;SDS011;5056;44.272;19.892;2022-12-19T13:43:28;36.03;;;24.83;;
10031;SDS011;5056;44.272;19.892;2022-12-19T13:46:25;36.73;;;24.13;;
10031;SDS011;5056;44.272;19.892;2022-12-19T13:48:56;32.17;;;20.40;;
10031;SDS011;5056;44.272;19.892;2022-12-19T13:51:27;23.93;;;18.73;;
10031;SDS011;5056;44.272;19.892;2022-12-19T13:54:14;27.47;;;19.50;;
10031;SDS011;5056;44.272;19.892;2022-12-19T13:56:44;27.00;;;18.43;;
10031;SDS011;5056;44.272;19.892;2022-12-19T13:59:11;30.73;;;20.17;;
10031;SDS011;5056;44.272;19.892;2022-12-19T14:01:39;34.47;;;24.33;;
10031;SDS011;5056;44.272;19.892;2022-12-19T14:04:07;41.33;;;26.87;;
10031;SDS011;5056;44.272;19.892;2022-12-19T14:06:38;31.07;;;21.27;;
10031;SDS011;5056;44.272;19.892;2022-12-19T14:09:07;31.83;;;22.17;;
10031;SDS011;5056;44.272;19.892;2022-12-19T14:11:47;50.73;;;32.20;;
10031;SDS011;5056;44.272;19.892;2022-12-19T14:14:17;40.17;;;27.07;;
10031;SDS011;5056;44.272;19.892;2022-12-19T14:17:06;42.87;;;28.50;;
10031;SDS011;5056;44.272;19.892;2022-12-19T14:19:38;35.33;;;23.07;;
10031;SDS011;5056;44.272;19.892;2022-12-19T14:22:09;30.60;;;22.53;;
10031;SDS011;5056;44.272;19.892;2022-12-19T14:24:47;42.87;;;28.10;;
10031;SDS011;5056;44.272;19.892;2022-12-19T14:27:26;43.13;;;28.23;;
10031;SDS011;5056;44.272;19.892;2022-12-19T14:29:59;51.20;;;32.83;;
10031;SDS011;5056;44.272;19.892;2022-12-19T14:32:27;51.30;;;30.37;;
10031;SDS011;5056;44.272;19.892;2022-12-19T14:34:54;50.63;;;31.33;;
10031;SDS011;5056;44.272;19.892;2022-12-19T14:37:26;44.63;;;29.50;;
10031;SDS011;5056;44.272;19.892;2022-12-19T14:40:04;49.40;;;32.43;;
10031;SDS011;5056;44.272;19.892;2022-12-19T14:42:32;43.37;;;28.40;;
10031;SDS011;5056;44.272;19.892;2022-12-19T14:45:33;45.87;;;30.20;;
10031;SDS011;5056;44.272;19.892;2022-12-19T14:48:01;35.67;;;25.63;;
10031;SDS011;5056;44.272;19.892;2022-12-19T14:50:48;50.93;;;34.37;;
10031;SDS011;5056;44.272;19.892;2022-12-19T14:53:15;49.13;;;33.97;;
10031;SDS011;5056;44.272;19.892;2022-12-19T14:55:44;60.67;;;42.13;;
10031;SDS011;5056;44.272;19.892;2022-12-19T14:58:15;97.57;;;82.00;;
10031;SDS011;5056;44.272;19.892;2022-12-19T15:00:45;102.47;;;73.30;;
10031;SDS011;5056;44.272;19.892;2022-12-19T15:03:17;67.77;;;49.67;;
10031;SDS011;5056;44.272;19.892;2022-12-19T15:05:47;58.70;;;39.83;;
10031;SDS011;5056;44.272;19.892;2022-12-19T15:08:15;56.10;;;35.77;;
10031;SDS011;5056;44.272;19.892;2022-12-19T15:10:58;54.80;;;38.03;;
10031;SDS011;5056;44.272;19.892;2022-12-19T15:13:52;59.90;;;39.13;;
10031;SDS011;5056;44.272;19.892;2022-12-19T15:16:23;62.50;;;41.07;;
10031;SDS011;5056;44.272;19.892;2022-12-19T15:18:52;64.17;;;40.00;;
10031;SDS011;5056;44.272;19.892;2022-12-19T15:21:21;57.70;;;40.63;;
10031;SDS011;5056;44.272;19.892;2022-12-19T15:23:49;64.00;;;39.83;;
10031;SDS011;5056;44.272;19.892;2022-12-19T15:26:18;57.40;;;39.57;;
10031;SDS011;5056;44.272;19.892;2022-12-19T15:28:47;62.40;;;40.60;;
10031;SDS011;5056;44.272;19.892;2022-12-19T15:31:19;76.50;;;48.50;;
10031;SDS011;5056;44.272;19.892;2022-12-19T15:33:51;89.83;;;53.67;;
10031;SDS011;5056;44.272;19.892;2022-12-19T15:36:18;93.70;;;58.93;;
10031;SDS011;5056;44.272;19.892;2022-12-19T15:38:45;87.30;;;53.73;;
10031;SDS011;5056;44.272;19.892;2022-12-19T15:41:14;70.87;;;47.30;;